createdAt,value
2018-11-12T00:25:02.597Z,26.8
2018-11-12T00:25:51.509Z,26.8
2018-11-12T00:26:41.206Z,27.1
2018-11-12T00:27:31.421Z,27.3
2018-11-12T00:28:20.634Z,27.5
2018-11-12T00:29:12.999Z,27.7
2018-11-12T00:30:03.185Z,27.9
2018-11-12T00:30:52.414Z,28.1
2018-11-12T00:31:42.532Z,28.2
2018-11-12T00:32:32.514Z,28.3
2018-11-12T00:33:21.543Z,28.4
2018-11-12T00:34:10.741Z,28.5
2018-11-12T00:35:01.776Z,28.6
2018-11-12T00:35:50.933Z,28.7
2018-11-12T00:36:40.238Z,28.8
2018-11-12T00:37:30.814Z,28.9
2018-11-12T00:38:20.916Z,29
2018-11-12T00:39:12.004Z,29.1
2018-11-12T00:40:03.964Z,29.1
2018-11-12T00:40:52.433Z,29.2
2018-11-12T00:41:42.426Z,29.3
2018-11-12T00:42:32.784Z,29.3
2018-11-12T00:43:23.176Z,29.4
2018-11-12T00:44:13.226Z,29.4
2018-11-12T00:45:02.281Z,29.5
2018-11-12T00:45:53.516Z,29.6
2018-11-12T00:46:42.751Z,29.6
2018-11-12T00:47:33.728Z,29.6
2018-11-12T00:48:21.920Z,29.7
2018-11-12T00:49:13.621Z,29.8
2018-11-12T00:50:03.616Z,29.8
2018-11-12T00:50:53.053Z,29.8
2018-11-12T00:51:42.385Z,29.8
2018-11-12T00:52:32.438Z,29.9
2018-11-12T00:53:23.240Z,29.9
2018-11-12T00:54:11.677Z,29.8
2018-11-12T00:55:03.866Z,29.8
2018-11-12T00:55:54.317Z,29.7
2018-11-12T00:56:42.770Z,29.5
2018-11-12T00:57:33.228Z,29.3
2018-11-12T00:58:23.657Z,29.1
2018-11-12T00:59:12.748Z,28.9
2018-11-12T01:00:03.191Z,28.8
2018-11-12T01:00:56.359Z,28.6
2018-11-12T01:01:42.940Z,28.4
2018-11-12T01:02:33.828Z,28.3
2018-11-12T01:03:22.786Z,28.1
2018-11-12T01:04:16.076Z,28
2018-11-12T01:05:03.925Z,27.9
2018-11-12T01:06:44.543Z,27.8
2018-11-12T01:07:34.732Z,27.6
2018-11-12T01:08:24.920Z,27.6
2018-11-12T01:09:13.533Z,27.4
2018-11-12T01:10:04.184Z,27.4
2018-11-12T01:10:54.032Z,27.3
2018-11-12T01:11:43.874Z,27
2018-11-12T01:12:33.956Z,27.5
2018-11-12T01:13:23.309Z,27.6
2018-11-12T01:14:14.256Z,27.2
2018-11-12T01:15:04.087Z,27
2018-11-12T01:15:54.672Z,26.9
2018-11-12T01:16:44.820Z,27
2018-11-12T01:17:34.579Z,27.2
2018-11-12T01:18:24.089Z,27.4
2018-11-12T01:19:14.037Z,27.6
2018-11-12T01:20:05.136Z,27.8
2018-11-12T01:20:55.936Z,27.9
2018-11-12T01:21:44.951Z,28.1
2018-11-12T01:22:34.368Z,28.2
2018-11-12T01:23:24.364Z,28.3
2018-11-12T01:24:13.576Z,28.4
2018-11-12T01:25:05.545Z,28.6
2018-11-12T01:25:55.887Z,28.6
2018-11-12T01:26:46.036Z,28.8
2018-11-12T01:27:35.293Z,28.8
2018-11-12T01:28:24.519Z,28.9
2018-11-12T01:29:15.811Z,29
2018-11-12T01:30:04.973Z,29.1
2018-11-12T01:30:56.282Z,29.1
2018-11-12T01:31:46.418Z,29.1
2018-11-12T01:32:35.870Z,28.9
2018-11-12T01:33:26.481Z,28.8
2018-11-12T01:34:17.020Z,28.5
2018-11-12T01:35:06.656Z,28.3
2018-11-12T01:35:55.795Z,27.9
2018-11-12T01:36:47.078Z,27.7
2018-11-12T01:37:36.616Z,27.5
2018-11-12T01:39:16.885Z,28.3
2018-11-12T01:40:06.101Z,27.9
2018-11-12T01:40:56.410Z,27.4
2018-11-12T01:41:47.707Z,26.9
2018-11-12T01:42:36.305Z,26.6
2018-11-12T01:43:26.460Z,26.6
2018-11-12T01:44:17.799Z,26.9
2018-11-12T01:45:06.857Z,27.3
2018-11-12T01:45:56.930Z,27.5
2018-11-12T01:46:46.545Z,27.8
2018-11-12T01:47:37.835Z,27.9
2018-11-12T01:48:27.545Z,28.1
2018-11-12T01:49:17.775Z,28.3
2018-11-12T01:50:06.925Z,28.4
2018-11-12T01:50:57.013Z,28.6
2018-11-12T01:51:47.977Z,28.7
2018-11-12T01:52:37.951Z,28.8
2018-11-12T01:53:27.449Z,28.9
2018-11-12T01:54:17.191Z,29.1
2018-11-12T01:55:07.652Z,29.1
2018-11-12T01:55:58.472Z,29.3
2018-11-12T01:56:47.542Z,29.3
2018-11-12T01:57:38.391Z,29.4
2018-11-12T01:58:28.381Z,29.5
2018-11-12T01:59:17.199Z,29.6
2018-11-12T02:00:07.866Z,29.6
2018-11-12T02:00:58.871Z,29.7
2018-11-12T02:01:50.288Z,29.7
2018-11-12T02:02:37.577Z,29.8
2018-11-12T02:03:29.034Z,29.7
2018-11-12T02:04:18.381Z,29.6
2018-11-12T02:05:09.334Z,29.4
2018-11-12T02:05:58.824Z,29.2
2018-11-12T02:06:49.247Z,29.1
2018-11-12T02:07:38.456Z,28.9
2018-11-12T02:08:28.658Z,28.7
2018-11-12T02:09:19.337Z,28.5
2018-11-12T02:10:08.854Z,28.4
2018-11-12T02:10:59.261Z,28.3
2018-11-12T02:11:48.154Z,28.1
2018-11-12T02:12:38.142Z,28
2018-11-12T02:13:29.536Z,27.9
2018-11-12T02:15:09.601Z,27.8
2018-11-12T02:15:58.445Z,27.6
2018-11-12T02:16:49.484Z,27.6
2018-11-12T02:17:39.308Z,27.5
2018-11-12T02:18:27.486Z,27.4
2018-11-12T02:19:20.206Z,27.2
2018-11-12T02:20:08.280Z,27.4
2018-11-12T02:20:59.801Z,27.8
2018-11-12T02:21:50.193Z,27.4
2018-11-12T02:22:40.252Z,27.1
2018-11-12T02:23:28.775Z,27
2018-11-12T02:24:19.159Z,26.9
2018-11-12T02:25:09.717Z,27.1
2018-11-12T02:25:59.946Z,27.4
2018-11-12T02:26:49.255Z,27.6
2018-11-12T02:28:30.309Z,28
2018-11-12T02:29:20.192Z,28.1
2018-11-12T02:30:11.332Z,28.3
2018-11-12T02:31:00.400Z,28.4
2018-11-12T02:31:50.632Z,28.6
2018-11-12T02:32:40.609Z,28.7
2018-11-12T02:33:33.153Z,28.8
2018-11-12T02:34:19.761Z,28.9
2018-11-12T02:35:10.266Z,29
2018-11-12T02:36:00.452Z,29.1
2018-11-12T02:36:51.220Z,29.2
2018-11-12T02:37:42.166Z,29.3
2018-11-12T02:38:31.355Z,29.4
2018-11-12T02:39:21.152Z,29.4
2018-11-12T02:40:10.861Z,29.5
2018-11-12T02:41:01.319Z,29.6
2018-11-12T02:41:51.876Z,29.7
2018-11-12T02:42:41.068Z,29.7
2018-11-12T02:43:31.459Z,29.8
2018-11-12T02:44:20.949Z,29.8
2018-11-12T02:45:12.014Z,29.9
2018-11-12T02:46:00.495Z,29.9
2018-11-12T02:46:51.066Z,29.9
2018-11-12T02:47:41.941Z,29.9
2018-11-12T02:48:31.531Z,29.8
2018-11-12T02:49:22.854Z,29.5
2018-11-12T02:50:11.441Z,29.4
2018-11-12T02:51:01.441Z,29.2
2018-11-12T02:51:52.741Z,29
2018-11-12T02:52:41.781Z,28.8
2018-11-12T02:53:31.494Z,28.8
2018-11-12T02:54:21.433Z,28.6
2018-11-12T02:55:11.968Z,28.5
2018-11-12T02:56:01.506Z,28.4
2018-11-12T02:56:51.373Z,28.3
2018-11-12T02:57:43.675Z,28.3
2018-11-12T02:58:32.994Z,28.1
2018-11-12T02:59:22.026Z,28.1
2018-11-12T03:00:13.558Z,28
2018-11-12T03:01:02.201Z,27.9
2018-11-12T03:01:53.202Z,27.9
2018-11-12T03:02:42.480Z,27.8
2018-11-12T03:03:33.218Z,27.4
2018-11-12T03:04:21.198Z,27.5
2018-11-12T03:05:13.785Z,27.9
2018-11-12T03:06:02.228Z,27.5
2018-11-12T03:06:52.835Z,27.3
2018-11-12T03:07:43.983Z,27.1
2018-11-12T03:08:33.771Z,27.1
2018-11-12T03:09:23.275Z,27.2
2018-11-12T03:10:13.592Z,27.4
2018-11-12T03:11:02.564Z,27.7
2018-11-12T03:11:53.427Z,27.9
2018-11-12T03:12:43.322Z,28.1
2018-11-12T03:13:32.527Z,28.3
2018-11-12T03:14:23.505Z,28.4
2018-11-12T03:15:13.137Z,28.5
2018-11-12T03:16:04.337Z,28.6
2018-11-12T03:16:53.374Z,28.8
2018-11-12T03:17:43.883Z,28.9
2018-11-12T03:18:34.226Z,28.9
2018-11-12T03:19:23.539Z,29.1
2018-11-12T03:20:12.342Z,29.1
2018-11-12T03:21:04.482Z,29.3
2018-11-12T03:21:53.835Z,29.3
2018-11-12T03:22:44.499Z,29.4
2018-11-12T03:23:34.075Z,29.4
2018-11-12T03:24:23.499Z,29.5
2018-11-12T03:25:14.897Z,29.6
2018-11-12T03:26:04.094Z,29.6
2018-11-12T03:26:54.742Z,29.6
2018-11-12T03:27:46.981Z,29.7
2018-11-12T03:28:34.876Z,29.8
2018-11-12T03:29:24.614Z,29.8
2018-11-12T03:30:14.883Z,29.8
2018-11-12T03:31:04.422Z,29.9
2018-11-12T03:31:54.536Z,29.9
2018-11-12T03:32:45.239Z,30
2018-11-12T03:33:34.907Z,30
2018-11-12T03:34:25.904Z,30
2018-11-12T03:35:15.912Z,30
2018-11-12T03:36:05.275Z,30
2018-11-12T03:36:54.772Z,29.9
2018-11-12T03:37:43.940Z,29.8
2018-11-12T03:38:34.116Z,29.7
2018-11-12T03:39:26.697Z,29.5
2018-11-12T03:40:14.891Z,29.3
2018-11-12T03:41:05.243Z,29.1
2018-11-12T03:41:54.726Z,28.9
2018-11-12T03:42:45.348Z,28.8
2018-11-12T03:43:35.610Z,28.7
2018-11-12T03:44:25.851Z,28.6
2018-11-12T03:45:15.608Z,28.4
2018-11-12T03:46:05.973Z,28.3
2018-11-12T03:46:55.820Z,28.3
2018-11-12T03:47:46.808Z,28.2
2018-11-12T03:48:37.216Z,28.1
2018-11-12T03:49:25.625Z,28
2018-11-12T03:50:16.313Z,27.9
2018-11-12T03:51:06.732Z,27.9
2018-11-12T03:51:56.823Z,27.8
2018-11-12T03:52:46.266Z,27.6
2018-11-12T03:53:36.030Z,27.3
2018-11-12T03:55:16.836Z,27.9
2018-11-12T03:56:06.588Z,27.6
2018-11-12T03:56:57.220Z,27.4
2018-11-12T03:57:46.067Z,27.3
2018-11-12T03:58:36.307Z,27.3
2018-11-12T03:59:26.760Z,27.4
2018-11-12T04:00:19.829Z,27.6
2018-11-12T04:01:56.428Z,28
2018-11-12T04:02:47.547Z,28.1
2018-11-12T04:03:37.222Z,28.3
2018-11-12T04:04:27.838Z,28.4
2018-11-12T04:05:17.772Z,28.5
2018-11-12T04:06:07.088Z,28.6
2018-11-12T04:06:58.230Z,28.8
2018-11-12T04:07:48.337Z,28.8
2018-11-12T04:08:37.979Z,28.9
2018-11-12T04:09:27.806Z,29
2018-11-12T04:10:18.078Z,29.1
2018-11-12T04:11:07.275Z,29.1
2018-11-12T04:11:57.172Z,29.2
2018-11-12T04:12:48.126Z,29.3
2018-11-12T04:13:38.164Z,29.3
2018-11-12T04:14:28.185Z,29.4
2018-11-12T04:15:18.508Z,29.4
2018-11-12T04:16:08.633Z,29.4
2018-11-12T04:16:57.891Z,29.5
2018-11-12T04:17:48.564Z,29.6
2018-11-12T04:18:38.196Z,29.6
2018-11-12T04:19:26.918Z,29.6
2018-11-12T04:20:18.009Z,29.6
2018-11-12T04:21:08.436Z,29.7
2018-11-12T04:21:58.395Z,29.7
2018-11-12T04:22:48.072Z,29.7
2018-11-12T04:23:37.991Z,29.6
2018-11-12T04:24:28.593Z,29.4
2018-11-12T04:25:19.640Z,29.2
2018-11-12T04:26:08.216Z,29
2018-11-12T04:26:59.160Z,28.7
2018-11-12T04:27:48.905Z,28.3
2018-11-12T04:28:39.234Z,28.1
2018-11-12T04:29:28.602Z,28
2018-11-12T04:30:19.033Z,28.5
2018-11-12T04:31:09.062Z,28.7
2018-11-12T04:31:59.221Z,28.1
2018-11-12T04:32:49.610Z,27.6
2018-11-12T04:33:39.470Z,27.2
2018-11-12T04:34:28.417Z,27
2018-11-12T04:35:19.359Z,27.2
2018-11-12T04:36:09.111Z,27.4
2018-11-12T04:54:17.825Z,29.9
2018-11-12T04:55:09.496Z,29.8
2018-11-12T04:55:58.367Z,29.6
2018-11-12T04:56:48.697Z,29.5
2018-11-12T04:57:38.104Z,29.3
2018-11-12T04:58:27.944Z,29.1
2018-11-12T04:59:19.942Z,28.9
2018-11-12T05:00:09.011Z,28.9
2018-11-12T05:00:58.837Z,28.8
2018-11-12T05:01:49.694Z,28.7
2018-11-12T05:02:38.691Z,28.6
2018-11-12T05:03:28.671Z,28.4
2018-11-12T05:04:18.919Z,28.4
2018-11-12T05:05:09.205Z,28.3
2018-11-12T05:05:59.648Z,28.2
2018-11-12T05:06:49.486Z,28.1
2018-11-12T05:07:42.606Z,28
2018-11-12T05:08:28.261Z,27.9
2018-11-12T05:10:08.391Z,27.7
2018-11-12T05:10:59.143Z,27.4
2018-11-12T05:11:50.085Z,27.9
2018-11-12T05:12:40.449Z,27.9
2018-11-12T05:13:29.931Z,27.6
2018-11-12T05:14:19.716Z,27.4
2018-11-12T05:15:09.830Z,27.3
2018-11-12T05:16:00.396Z,27.3
2018-11-12T05:16:51.932Z,27.4
2018-11-12T05:17:39.418Z,27.7
2018-11-12T05:18:29.478Z,27.9
2018-11-12T05:19:20.018Z,28.1
2018-11-12T05:20:11.275Z,28.3
2018-11-12T05:21:00.045Z,28.4
2018-11-12T05:21:51.311Z,28.6
2018-11-12T05:22:39.640Z,28.7
2018-11-12T05:23:29.757Z,28.8
2018-11-12T05:24:21.210Z,28.9
2018-11-12T05:25:10.600Z,29
2018-11-12T05:26:01.309Z,29.1
2018-11-12T05:26:50.105Z,29.2
2018-11-12T05:27:40.400Z,29.3
2018-11-12T05:28:31.552Z,29.4
2018-11-12T05:29:21.522Z,29.4
2018-11-12T05:30:11.277Z,29.5
2018-11-12T05:31:00.222Z,29.6
2018-11-12T05:31:49.856Z,29.6
2018-11-12T05:32:40.940Z,29.7
2018-11-12T05:33:29.912Z,29.8
2018-11-12T05:34:20.604Z,29.8
2018-11-12T05:35:11.217Z,29.9
2018-11-12T05:36:01.325Z,29.9
2018-11-12T05:36:51.060Z,29.9
2018-11-12T05:37:42.072Z,29.9
2018-11-12T05:38:33.404Z,29.9
2018-11-12T05:39:21.779Z,29.8
2018-11-12T05:40:12.092Z,29.7
2018-11-12T05:41:01.662Z,29.5
2018-11-12T05:41:52.374Z,29.3
2018-11-12T05:42:41.214Z,29.1
2018-11-12T05:43:32.064Z,29
2018-11-12T05:44:21.614Z,28.8
2018-11-12T05:45:13.794Z,28.8
2018-11-12T05:46:01.917Z,28.6
2018-11-12T05:46:51.423Z,28.5
2018-11-12T05:47:41.499Z,28.4
2018-11-12T05:48:32.950Z,28.3
2018-11-12T05:49:22.207Z,28.2
2018-11-12T05:50:13.129Z,28.1
2018-11-12T05:51:03.196Z,28
2018-11-12T05:51:53.124Z,27.9
2018-11-12T05:52:42.536Z,27.9
2018-11-12T05:54:23.068Z,27.6
2018-11-12T05:55:12.298Z,27.6
2018-11-12T05:56:04.044Z,28
2018-11-12T05:56:52.648Z,27.8
2018-11-12T05:57:42.450Z,27.6
2018-11-12T05:58:32.505Z,27.4
2018-11-12T05:59:22.627Z,27.3
2018-11-12T06:00:12.416Z,27.4
2018-11-12T06:01:02.181Z,27.6
2018-11-12T06:01:53.134Z,27.8
2018-11-12T06:02:42.343Z,28
2018-11-12T06:03:33.158Z,28.1
2018-11-12T06:04:22.784Z,28.3
2018-11-12T06:05:13.465Z,28.4
2018-11-12T06:06:03.896Z,28.6
2018-11-12T06:06:53.011Z,28.7
2018-11-12T06:07:43.035Z,28.8
2018-11-12T06:08:34.180Z,28.9
2018-11-12T06:09:23.246Z,29
2018-11-12T06:10:13.120Z,29.1
2018-11-12T06:11:04.100Z,29.2
2018-11-12T06:11:53.850Z,29.3
2018-11-12T06:12:44.035Z,29.4
2018-11-12T06:13:33.653Z,29.4
2018-11-12T06:14:25.355Z,29.5
2018-11-12T06:15:13.330Z,29.6
2018-11-12T06:16:04.322Z,29.6
2018-11-12T06:16:53.672Z,29.7
2018-11-12T06:17:44.789Z,29.7
2018-11-12T06:18:33.897Z,29.8
2018-11-12T06:19:23.494Z,29.8
2018-11-12T06:20:14.362Z,29.8
2018-11-12T06:21:03.942Z,29.9
2018-11-12T06:21:54.759Z,29.9
2018-11-12T06:22:44.896Z,30
2018-11-12T06:23:34.017Z,30
2018-11-12T06:24:24.616Z,30
2018-11-12T06:25:14.492Z,30
2018-11-12T06:26:05.142Z,29.9
2018-11-12T06:26:55.365Z,29.8
2018-11-12T06:27:45.861Z,29.6
2018-11-12T06:28:35.439Z,29.4
2018-11-12T06:29:25.248Z,29.2
2018-11-12T06:30:14.588Z,29.1
2018-11-12T06:31:05.427Z,28.9
2018-11-12T06:31:54.970Z,28.8
2018-11-12T06:32:45.108Z,28.6
2018-11-12T06:33:34.501Z,28.5
2018-11-12T06:34:25.789Z,28.4
2018-11-12T06:35:14.507Z,28.3
2018-11-12T06:36:06.281Z,28.2
2018-11-12T06:36:58.229Z,28.1
2018-11-12T06:37:45.583Z,27.9
2018-11-12T06:38:35.774Z,27.9
2018-11-12T06:39:25.486Z,27.8
2018-11-12T06:40:16.393Z,27.7
2018-11-12T06:41:05.749Z,27.6
2018-11-12T06:41:56.488Z,27.3
2018-11-12T06:44:26.329Z,27.6
2018-11-12T06:45:16.561Z,27.4
2018-11-12T06:46:06.625Z,27.3
2018-11-12T06:46:54.380Z,27.3
2018-11-12T06:47:46.100Z,27.5
2018-11-12T06:48:35.393Z,27.7
2018-11-12T06:49:28.318Z,27.9
2018-11-12T06:50:15.127Z,28
2018-11-12T06:51:05.218Z,28.1
2018-11-12T06:51:56.553Z,28.1
2018-11-12T06:52:45.722Z,28.2
2018-11-12T06:53:38.003Z,28.1
2018-11-12T06:54:26.008Z,28.1
2018-11-12T06:55:17.278Z,27.9
2018-11-12T06:56:57.267Z,27.7
2018-11-12T06:57:47.006Z,27.5
2018-11-12T06:58:36.496Z,27.3
2018-11-12T06:59:28.633Z,27.1
2018-11-12T07:00:17.487Z,27.1
2018-11-12T07:01:07.995Z,26.9
2018-11-12T07:01:58.174Z,26.9
2018-11-12T07:02:46.942Z,26.8
2018-11-12T07:03:36.293Z,26.7
2018-11-12T07:04:26.975Z,26.6
2018-11-12T07:05:16.912Z,26.6
2018-11-12T07:06:06.709Z,26.5
2018-11-12T07:06:58.575Z,26.4
2018-11-12T07:07:48.392Z,26.3
2018-11-12T07:08:37.262Z,26.2
2018-11-12T07:09:27.972Z,26.1
2018-11-12T07:10:16.840Z,26.1
2018-11-12T07:11:08.225Z,25.9
2018-11-12T07:11:59.423Z,25.8
2018-11-12T07:12:48.261Z,25.7
2018-11-12T07:13:38.704Z,25.7
2018-11-12T07:14:27.335Z,25.6
2018-11-12T07:15:17.832Z,25.5
2018-11-12T07:16:08.638Z,25.4
2018-11-12T07:16:59.025Z,25.4
2018-11-12T07:17:47.620Z,25.3
2018-11-12T07:18:38.115Z,25.3
2018-11-12T07:19:28.265Z,25.2
2018-11-12T07:20:18.525Z,25.1
2018-11-12T07:21:08.954Z,25.1
2018-11-12T07:21:58.352Z,24.9
2018-11-12T07:22:48.949Z,24.9
2018-11-12T07:23:40.162Z,24.9
2018-11-12T07:24:28.185Z,24.8
2018-11-12T07:25:20.549Z,24.7
2018-11-12T07:26:09.065Z,24.6
2018-11-12T07:26:58.977Z,24.6
2018-11-12T07:27:48.892Z,24.5
2018-11-12T07:28:39.304Z,24.4
2018-11-12T07:29:29.025Z,24.4
2018-11-12T07:30:18.822Z,24.3
2018-11-12T07:31:09.929Z,24.3
2018-11-12T07:31:59.332Z,24.2
2018-11-12T07:32:49.814Z,24.1
2018-11-12T07:33:38.971Z,24.1
2018-11-12T07:34:29.304Z,24.1
2018-11-12T07:35:18.801Z,24
2018-11-12T07:36:08.881Z,23.9
2018-11-12T07:37:00.229Z,23.9
2018-11-12T07:37:50.029Z,23.8
2018-11-12T07:38:39.489Z,23.8
2018-11-12T07:39:30.031Z,23.8
2018-11-12T07:40:19.139Z,23.8
2018-11-12T07:41:10.311Z,23.6
2018-11-12T07:42:01.657Z,23.6
2018-11-12T07:42:49.139Z,23.6
2018-11-12T07:43:40.781Z,23.5
2018-11-12T07:44:28.583Z,23.5
2018-11-12T07:45:19.455Z,23.4
2018-11-12T07:46:10.351Z,23.4
2018-11-12T07:46:59.453Z,23.4
2018-11-12T07:47:50.387Z,23.3
2018-11-12T07:48:41.556Z,23.3
2018-11-12T07:49:30.001Z,23.3
2018-11-12T07:50:19.704Z,23.3
2018-11-12T07:51:11.083Z,23.2
2018-11-12T07:52:00.393Z,23.1
2018-11-12T07:52:50.255Z,23.1
2018-11-12T07:53:41.943Z,23.1
2018-11-12T07:54:32.283Z,23.1
2018-11-12T07:55:19.905Z,23
2018-11-12T07:56:11.857Z,23
2018-11-12T07:57:00.017Z,22.9
2018-11-12T07:57:51.808Z,22.9
2018-11-12T07:58:40.552Z,22.9
2018-11-12T07:59:32.071Z,22.9
2018-11-12T08:00:20.961Z,22.9
2018-11-12T08:01:12.057Z,22.8
2018-11-12T08:02:01.974Z,22.8
2018-11-12T08:02:50.497Z,22.8
2018-11-12T08:03:59.012Z,22.8
2018-11-12T08:04:32.617Z,22.7
2018-11-12T08:05:22.387Z,22.7
2018-11-12T08:06:11.085Z,22.7
2018-11-12T08:07:02.455Z,22.6
2018-11-12T08:07:52.153Z,22.6
2018-11-12T08:08:42.580Z,22.6
2018-11-12T08:09:34.059Z,22.6
2018-11-12T08:10:21.422Z,22.6
2018-11-12T08:11:11.159Z,22.5
2018-11-12T08:12:04.537Z,22.4
2018-11-12T08:12:51.904Z,22.5
2018-11-12T08:13:40.727Z,22.4
2018-11-12T08:14:34.440Z,22.4
2018-11-12T08:15:22.346Z,22.4
2018-11-12T08:16:11.484Z,22.4
2018-11-12T08:17:02.577Z,22.3
2018-11-12T08:17:54.641Z,22.3
2018-11-12T08:18:41.923Z,22.3
2018-11-12T08:19:30.288Z,22.3
2018-11-12T08:20:22.736Z,22.3
2018-11-12T08:21:12.289Z,22.3
2018-11-12T08:22:03.111Z,22.2
2018-11-12T08:22:53.789Z,22.1
2018-11-12T08:23:43.176Z,22.1
2018-11-12T08:24:35.076Z,22.1
2018-11-12T08:25:23.096Z,22.1
2018-11-12T08:26:13.741Z,22.1
2018-11-12T08:27:02.943Z,22.1
2018-11-12T08:27:53.084Z,22
2018-11-12T08:28:42.726Z,22
2018-11-12T08:29:33.467Z,22
2018-11-12T08:30:24.005Z,22
2018-11-12T08:31:13.751Z,22
2018-11-12T08:32:03.545Z,22
2018-11-12T08:32:53.483Z,21.9
2018-11-12T08:33:42.756Z,21.9
2018-11-12T08:34:33.626Z,21.9
2018-11-12T08:35:23.050Z,21.9
2018-11-12T08:36:15.244Z,21.9
2018-11-12T08:37:03.000Z,21.9
2018-11-12T08:37:54.586Z,21.9
2018-11-12T08:38:43.425Z,21.8
2018-11-12T08:39:36.703Z,21.9
2018-11-12T08:40:25.567Z,21.9
2018-11-12T08:41:15.541Z,21.9
2018-11-12T08:42:03.524Z,21.8
2018-11-12T08:42:55.751Z,21.8
2018-11-12T08:43:44.405Z,21.8
2018-11-12T08:44:32.615Z,21.8
2018-11-12T08:45:24.660Z,21.8
2018-11-12T08:46:15.499Z,21.8
2018-11-12T08:47:03.695Z,21.8
2018-11-12T08:47:54.007Z,21.8
2018-11-12T08:48:44.415Z,21.8
2018-11-12T08:49:39.411Z,21.8
2018-11-12T08:50:24.672Z,21.8
2018-11-12T08:51:15.420Z,21.8
2018-11-12T08:52:05.182Z,21.7
2018-11-12T09:08:48.667Z,21.6
2018-11-12T09:09:38.123Z,21.6
2018-11-12T09:10:28.763Z,21.6
2018-11-12T09:11:18.093Z,21.6
2018-11-12T09:12:08.323Z,21.5
2018-11-12T09:12:58.899Z,21.6
2018-11-12T09:13:52.288Z,21.5
2018-11-12T09:14:38.965Z,21.5
2018-11-12T09:15:28.208Z,21.5
2018-11-12T09:16:18.882Z,21.4
2018-11-12T09:17:07.810Z,21.5
2018-11-12T09:17:58.366Z,21.5
2018-11-12T09:18:49.006Z,21.5
2018-11-12T09:19:39.398Z,21.4
2018-11-12T09:20:29.957Z,21.5
2018-11-12T09:21:17.673Z,21.4
2018-11-12T09:22:08.748Z,21.4
2018-11-12T09:23:00.178Z,21.4
2018-11-12T09:23:49.755Z,21.4
2018-11-12T09:24:39.872Z,21.4
2018-11-12T09:25:29.325Z,21.4
2018-11-12T09:26:20.244Z,21.4
2018-11-12T09:27:07.885Z,21.4
2018-11-12T09:27:58.089Z,21.4
2018-11-12T09:28:47.903Z,21.4
2018-11-12T09:29:39.091Z,21.4
2018-11-12T09:30:30.563Z,21.4
2018-11-12T09:31:34.183Z,21.4
2018-11-12T09:32:10.325Z,21.3
2018-11-12T09:33:00.977Z,21.3
2018-11-12T09:33:50.440Z,21.3
2018-11-12T09:34:41.510Z,21.3
2018-11-12T09:35:31.059Z,21.3
2018-11-12T09:37:10.740Z,21.3
2018-11-12T09:38:01.605Z,21.3
2018-11-12T09:38:50.809Z,21.3
2018-11-12T09:39:41.255Z,21.3
2018-11-12T09:40:31.409Z,21.3
2018-11-12T09:41:20.660Z,21.3
2018-11-12T09:42:11.755Z,21.3
2018-11-12T09:43:02.014Z,21.3
2018-11-12T09:43:51.002Z,21.3
2018-11-12T09:44:41.958Z,21.3
2018-11-12T09:45:31.238Z,21.3
2018-11-12T09:46:22.359Z,21.2
2018-11-12T09:47:10.346Z,21.3
2018-11-12T09:48:04.139Z,21.2
2018-11-12T09:48:53.519Z,21.2
2018-11-12T09:49:42.288Z,21.2
2018-11-12T09:50:31.771Z,21.2
2018-11-12T09:51:21.438Z,21.2
2018-11-12T09:52:11.226Z,21.2
2018-11-12T09:53:01.506Z,21.2
2018-11-12T09:53:54.812Z,21.2
2018-11-12T09:56:23.536Z,21.2
2018-11-12T10:01:31.090Z,21.1
2018-11-12T10:04:14.572Z,21.1
2018-11-12T10:05:06.685Z,21.1
2018-11-12T10:05:46.822Z,21.1
2018-11-12T10:06:56.580Z,21.1
2018-11-12T10:07:48.591Z,21.1
2018-11-12T10:08:27.143Z,21
2018-11-12T10:09:14.475Z,21.1
2018-11-12T10:10:33.091Z,21.1
2018-11-12T10:11:31.777Z,21
2018-11-12T10:12:21.387Z,21.1
2018-11-12T10:13:27.777Z,21
2018-11-12T10:14:33.048Z,21.1
2018-11-12T10:15:23.571Z,21
2018-11-12T10:16:26.912Z,21.1
2018-11-12T10:17:40.374Z,21
2018-11-12T10:18:17.193Z,20.9
2018-11-12T10:18:36.588Z,21
2018-11-12T10:19:26.204Z,21
2018-11-12T10:20:17.962Z,21
2018-11-12T10:21:05.632Z,21
2018-11-12T10:21:57.157Z,21
2018-11-12T10:22:46.227Z,21
2018-11-12T10:23:37.209Z,21
2018-11-12T10:24:25.456Z,21
2018-11-12T10:25:16.716Z,21.1
2018-11-12T10:26:05.756Z,21
2018-11-12T10:26:55.942Z,21
2018-11-12T10:27:46.279Z,21
2018-11-12T10:28:36.797Z,20.9
2018-11-12T10:29:26.559Z,21
2018-11-12T10:30:17.186Z,20.9
2018-11-12T10:31:06.759Z,20.9
2018-11-12T10:31:56.662Z,21
2018-11-12T10:32:47.286Z,20.9
2018-11-12T10:33:38.581Z,21
2018-11-12T10:34:26.811Z,21
2018-11-12T10:35:16.327Z,21
2018-11-12T10:36:06.859Z,20.9
2018-11-12T10:36:57.448Z,21
2018-11-12T10:37:47.252Z,20.9
2018-11-12T10:38:36.662Z,20.9
2018-11-12T10:39:26.819Z,20.9
2018-11-12T10:40:17.871Z,20.9
2018-11-12T10:41:08.777Z,20.9
2018-11-12T10:41:58.405Z,20.9
2018-11-12T10:42:50.803Z,20.9
2018-11-12T10:43:38.396Z,20.9
2018-11-12T10:44:27.817Z,20.9
2018-11-12T10:45:17.737Z,20.9
2018-11-12T10:46:08.335Z,20.9
2018-11-12T10:46:58.158Z,20.9
2018-11-12T10:47:49.253Z,20.9
2018-11-12T10:48:38.859Z,20.9
2018-11-12T10:49:29.025Z,20.9
2018-11-12T10:50:18.272Z,20.9
2018-11-12T10:51:14.180Z,20.9
2018-11-12T10:51:58.943Z,20.9
2018-11-12T10:52:48.715Z,20.9
2018-11-12T10:53:51.051Z,20.9
2018-11-12T10:54:28.821Z,20.9
2018-11-12T10:55:23.986Z,20.9
2018-11-12T10:56:14.101Z,20.9
2018-11-12T10:56:59.372Z,20.9
2018-11-12T10:57:49.312Z,20.9
2018-11-12T10:58:40.931Z,20.9
2018-11-12T10:59:29.367Z,20.9
2018-11-12T11:00:20.975Z,20.9
2018-11-12T11:01:08.437Z,20.8
2018-11-12T11:01:59.181Z,20.8
2018-11-12T11:02:48.909Z,20.8
2018-11-12T11:03:40.100Z,20.8
2018-11-12T11:04:30.444Z,20.8
2018-11-12T11:05:19.537Z,20.8
2018-11-12T11:06:07.880Z,20.9
2018-11-12T11:07:00.589Z,20.8
2018-11-12T11:07:49.884Z,20.8
2018-11-12T11:08:40.035Z,20.8
2018-11-12T11:09:30.421Z,20.9
2018-11-12T11:10:19.309Z,20.8
2018-11-12T11:11:10.619Z,20.8
2018-11-12T11:12:00.222Z,20.8
2018-11-12T11:12:50.574Z,20.8
2018-11-12T11:13:40.490Z,20.8
2018-11-12T11:14:31.084Z,20.8
2018-11-12T11:15:21.604Z,20.9
2018-11-12T11:16:09.774Z,20.8
2018-11-12T11:17:00.977Z,20.8
2018-11-12T11:17:50.308Z,20.8
2018-11-12T11:18:41.650Z,20.8
2018-11-12T11:19:31.938Z,20.8
2018-11-12T11:20:20.677Z,20.9
2018-11-12T11:21:10.809Z,20.9
2018-11-12T11:22:01.742Z,20.9
2018-11-12T11:22:50.408Z,20.9
2018-11-12T11:23:42.011Z,20.9
2018-11-12T11:24:32.018Z,20.8
2018-11-12T11:25:20.360Z,20.9
2018-11-12T11:26:11.571Z,20.8
2018-11-12T11:27:01.712Z,20.8
2018-11-12T11:27:50.483Z,20.9
2018-11-12T11:28:42.642Z,20.8
2018-11-12T11:29:31.553Z,20.9
2018-11-12T11:30:20.498Z,20.9
2018-11-12T11:31:11.875Z,20.9
2018-11-12T11:32:01.661Z,20.9
2018-11-12T11:32:51.815Z,20.9
2018-11-12T11:33:40.668Z,20.8
2018-11-12T11:34:30.733Z,20.9
2018-11-12T11:35:21.516Z,20.8
2018-11-12T11:36:11.907Z,20.8
2018-11-12T11:37:01.264Z,20.8
2018-11-12T11:37:51.994Z,20.8
2018-11-12T11:38:41.413Z,20.8
2018-11-12T11:39:30.738Z,20.8
2018-11-12T11:40:24.221Z,20.8
2018-11-12T11:41:12.538Z,20.9
2018-11-12T11:42:01.772Z,20.9
2018-11-12T11:42:51.139Z,20.9
2018-11-12T11:43:41.645Z,20.8
2018-11-12T11:44:31.177Z,20.8
2018-11-12T11:45:21.715Z,20.8
2018-11-12T11:46:12.221Z,20.8
2018-11-12T11:47:02.187Z,20.8
2018-11-12T11:47:53.799Z,20.8
2018-11-12T11:48:43.040Z,20.8
2018-11-12T11:49:32.434Z,20.8
2018-11-12T11:50:25.287Z,20.8
2018-11-12T11:51:12.422Z,20.8
2018-11-12T11:52:02.983Z,20.8
2018-11-12T11:52:53.337Z,20.8
2018-11-12T11:53:41.820Z,20.8
2018-11-12T11:54:33.089Z,20.8
2018-11-12T11:55:22.739Z,20.8
2018-11-12T11:56:13.337Z,20.8
2018-11-12T11:57:04.153Z,20.8
2018-11-12T11:57:54.666Z,20.8
2018-11-12T11:58:42.847Z,20.8
2018-11-12T11:59:32.781Z,20.8
2018-11-12T12:00:23.762Z,20.8
2018-11-12T12:01:15.546Z,20.8
2018-11-12T12:02:03.116Z,20.8
2018-11-12T12:02:54.621Z,20.8
2018-11-12T12:03:42.696Z,20.8
2018-11-12T12:04:34.121Z,20.8
2018-11-12T12:05:23.971Z,20.8
2018-11-12T12:06:13.434Z,20.8
2018-11-12T12:07:03.796Z,20.8
2018-11-12T12:07:54.179Z,20.8
2018-11-12T12:08:44.359Z,20.8
2018-11-12T12:09:34.879Z,20.8
2018-11-12T12:10:25.169Z,20.8
2018-11-12T12:11:15.441Z,20.8
2018-11-12T12:12:04.343Z,20.9
2018-11-12T12:12:56.133Z,20.8
2018-11-12T12:13:43.721Z,20.8
2018-11-12T12:14:35.416Z,20.8
2018-11-12T12:15:25.138Z,20.8
2018-11-12T12:16:14.833Z,20.8
2018-11-12T12:17:04.123Z,20.8
2018-11-12T12:17:54.601Z,20.8
2018-11-12T12:18:45.278Z,20.8
2018-11-12T12:19:34.975Z,20.8
2018-11-12T12:20:25.248Z,20.9
2018-11-12T12:21:15.658Z,20.8
2018-11-12T12:22:03.985Z,20.8
2018-11-12T12:22:55.997Z,20.8
2018-11-12T12:23:45.628Z,20.8
2018-11-12T12:24:36.734Z,20.8
2018-11-12T12:25:30.984Z,20.8
2018-11-12T12:26:15.288Z,20.8